Time;durP1;ratioP1;P1;durP2;ratioP2;P2;SDS_P1;SDS_P2;PMS_P1;PMS_P2;Temp;Humidity;BMP_temperature;BMP_pressure;BME280_temperature;BME280_humidity;BME280_pressure;Samples;Min_cycle;Max_cycle;Signal;HPM_P1;HPM_P2
2022/04/09 00:00:23;;;;;;;13.48;3.33;;;5.50;99.90;;;;;;5108247;28;20039;-60
2022/04/09 00:02:49;;;;;;;16.27;4.15;;;5.50;99.90;;;;;;5108546;28;20059;-56
2022/04/09 00:05:15;;;;;;;14.65;3.25;;;5.50;99.90;;;;;;5092896;28;20074;-56
2022/04/09 00:07:42;;;;;;;10.85;3.47;;;5.50;99.90;;;;;;5100284;28;20028;-56
2022/04/09 00:10:10;;;;;;;12.23;4.07;;;5.40;99.90;;;;;;5107514;28;21142;-56
2022/04/09 00:12:37;;;;;;;16.10;3.95;;;5.50;99.90;;;;;;5100969;28;20024;-59
2022/04/09 00:15:03;;;;;;;30.27;7.28;;;5.50;99.90;;;;;;5103304;28;20032;-57
2022/04/09 00:17:28;;;;;;;13.88;3.40;;;5.50;99.90;;;;;;5106975;28;20034;-58
2022/04/09 00:19:54;;;;;;;11.35;3.17;;;5.40;99.90;;;;;;5108585;28;20028;-54
2022/04/09 00:22:19;;;;;;;17.52;3.35;;;5.40;99.90;;;;;;5090676;28;20027;-57
2022/04/09 00:24:45;;;;;;;17.00;3.47;;;5.40;99.90;;;;;;5106873;28;20039;-57
2022/04/09 00:27:12;;;;;;;13.35;3.13;;;5.40;99.90;;;;;;5103304;28;20428;-55
2022/04/09 00:29:38;;;;;;;9.15;3.50;;;5.40;99.90;;;;;;5108456;28;20825;-53
2022/04/09 00:32:04;;;;;;;12.02;3.88;;;5.40;99.90;;;;;;5106797;28;20063;-56
2022/04/09 00:34:29;;;;;;;13.90;3.35;;;5.40;99.90;;;;;;5107192;28;20126;-57
2022/04/09 00:36:55;;;;;;;15.25;4.07;;;5.30;99.90;;;;;;5108457;28;20103;-53
2022/04/09 00:39:20;;;;;;;18.55;4.43;;;5.20;99.90;;;;;;5095897;28;20453;-57
2022/04/09 00:41:47;;;;;;;17.52;4.55;;;5.20;99.90;;;;;;5108281;28;20073;-57
2022/04/09 00:44:33;;;;;;;15.90;3.90;;;5.20;99.90;;;;;;5107046;28;20107;-53
2022/04/09 00:46:59;;;;;;;14.93;4.28;;;5.10;99.90;;;;;;5100870;28;20024;-53
2022/04/09 00:49:28;;;;;;;16.23;4.35;;;5.20;99.90;;;;;;5107872;28;20023;-54
2022/04/09 00:51:55;;;;;;;17.92;6.22;;;5.10;99.90;;;;;;5094968;28;20533;-56
2022/04/09 00:54:24;;;;;;;12.77;3.75;;;5.10;99.90;;;;;;5100480;28;20031;-57
2022/04/09 00:56:52;;;;;;;20.52;3.92;;;5.10;99.90;;;;;;5103439;28;20024;-53
2022/04/09 00:59:23;;;;;;;18.95;6.15;;;5.10;99.90;;;;;;5104361;28;20035;-56
2022/04/09 01:01:49;;;;;;;14.57;4.28;;;5.10;99.90;;;;;;5094692;28;20499;-57
2022/04/09 01:04:15;;;;;;;8.93;3.42;;;5.10;99.90;;;;;;5106782;28;20039;-53
2022/04/09 01:06:40;;;;;;;13.45;3.88;;;5.00;99.90;;;;;;5106333;28;20058;-54
2022/04/09 01:09:07;;;;;;;11.50;3.70;;;5.00;99.90;;;;;;5105019;28;20509;-56
2022/04/09 01:11:33;;;;;;;15.55;3.75;;;5.00;99.90;;;;;;5107435;28;20440;-53
2022/04/09 01:13:59;;;;;;;25.05;3.88;;;5.00;99.90;;;;;;5106086;28;20379;-53
2022/04/09 01:16:28;;;;;;;17.42;4.05;;;5.00;99.90;;;;;;5089345;28;20039;-53
2022/04/09 01:18:55;;;;;;;13.70;3.47;;;5.00;99.90;;;;;;5107888;28;20023;-53
2022/04/09 01:21:26;;;;;;;13.68;3.83;;;4.90;99.90;;;;;;5105459;28;20044;-55
2022/04/09 01:23:53;;;;;;;12.13;3.45;;;4.90;99.90;;;;;;5093000;28;20076;-55
2022/04/09 01:26:18;;;;;;;17.52;4.55;;;4.90;99.90;;;;;;5110670;28;20024;-56
2022/04/09 01:28:44;;;;;;;11.73;2.85;;;4.90;99.90;;;;;;5111094;28;20020;-53
2022/04/09 01:31:10;;;;;;;20.30;3.33;;;4.90;99.90;;;;;;5111671;28;20032;-55
2022/04/09 01:33:36;;;;;;;13.88;3.92;;;4.90;99.90;;;;;;5106588;28;20026;-55
2022/04/09 01:36:02;;;;;;;16.40;3.65;;;4.90;99.90;;;;;;5107294;28;20344;-54
2022/04/09 01:38:28;;;;;;;15.15;3.50;;;4.90;99.90;;;;;;5111317;28;20074;-60
2022/04/09 01:40:56;;;;;;;26.73;3.88;;;4.80;99.90;;;;;;5110981;28;20024;-54
2022/04/09 01:43:22;;;;;;;14.38;4.20;;;4.90;99.90;;;;;;5111334;28;20418;-63
2022/04/09 01:45:48;;;;;;;18.20;3.40;;;4.90;99.90;;;;;;5109825;28;20119;-53
2022/04/09 01:48:13;;;;;;;28.95;4.85;;;4.90;99.90;;;;;;5103892;28;20146;-53
2022/04/09 01:50:39;;;;;;;17.30;3.35;;;4.90;99.90;;;;;;5104074;28;20053;-53
2022/04/09 01:53:05;;;;;;;19.42;3.72;;;4.90;99.90;;;;;;5110441;28;20027;-52
2022/04/09 01:55:32;;;;;;;15.02;3.13;;;5.00;99.90;;;;;;5103168;28;20027;-53
2022/04/09 01:57:58;;;;;;;13.55;3.85;;;4.90;99.90;;;;;;5107002;28;20032;-53
2022/04/09 02:00:24;;;;;;;13.93;3.47;;;4.90;99.90;;;;;;5106670;28;20112;-53
2022/04/09 02:02:50;;;;;;;19.73;3.17;;;4.90;99.90;;;;;;5097112;28;20030;-56
2022/04/09 02:05:16;;;;;;;15.75;3.60;;;4.90;99.90;;;;;;5102291;28;20044;-55
2022/04/09 02:07:43;;;;;;;13.70;3.33;;;4.90;99.90;;;;;;5110804;28;20019;-54
2022/04/09 02:10:09;;;;;;;21.30;4.88;;;5.00;99.90;;;;;;5110081;28;20031;-53
2022/04/09 02:12:36;;;;;;;24.23;4.47;;;4.90;99.90;;;;;;5110008;28;20150;-54
2022/04/09 02:15:10;;;;;;;18.85;3.10;;;4.90;99.90;;;;;;5109650;28;20042;-52
2022/04/09 02:17:40;;;;;;;17.42;3.33;;;5.00;99.90;;;;;;5109964;28;20034;-53
2022/04/09 02:20:07;;;;;;;22.05;3.80;;;5.00;99.90;;;;;;5110198;28;20119;-53
2022/04/09 02:22:35;;;;;;;25.58;3.95;;;5.10;99.90;;;;;;5109894;28;20522;-53
2022/04/09 02:25:01;;;;;;;20.83;4.25;;;5.10;99.90;;;;;;5110015;28;20051;-53
2022/04/09 02:27:26;;;;;;;22.75;4.60;;;5.10;99.90;;;;;;5109117;28;20493;-52
2022/04/09 02:29:52;;;;;;;20.58;4.28;;;5.10;99.90;;;;;;5110489;28;20024;-54
2022/04/09 02:32:17;;;;;;;15.88;3.97;;;5.20;99.90;;;;;;5109970;28;20028;-57
2022/04/09 02:34:43;;;;;;;23.88;4.20;;;5.10;99.90;;;;;;5104812;28;20046;-53
2022/04/09 02:37:08;;;;;;;45.75;5.70;;;5.10;99.90;;;;;;5108786;28;20031;-53
2022/04/09 02:39:34;;;;;;;30.20;4.18;;;5.10;99.90;;;;;;5104766;28;20035;-58
2022/04/09 02:41:59;;;;;;;15.45;4.07;;;5.10;99.90;;;;;;5110320;28;20415;-53
2022/04/09 02:44:25;;;;;;;17.92;4.20;;;5.10;99.90;;;;;;5109833;28;20049;-56
2022/04/09 02:46:51;;;;;;;20.00;3.58;;;5.10;99.90;;;;;;5109668;28;20110;-60
2022/04/09 02:49:16;;;;;;;23.70;4.80;;;5.10;99.90;;;;;;5110719;28;20023;-58
2022/04/09 02:51:45;;;;;;;18.02;4.47;;;5.10;99.90;;;;;;5108128;28;20031;-57
2022/04/09 02:54:15;;;;;;;20.35;4.80;;;5.10;99.90;;;;;;5102687;28;20020;-56
2022/04/09 02:56:42;;;;;;;21.77;4.53;;;5.00;99.90;;;;;;5105049;28;20224;-56
2022/04/09 02:59:09;;;;;;;27.52;4.97;;;5.00;99.90;;;;;;5112166;22;20048;-58
2022/04/09 03:01:34;;;;;;;18.73;3.88;;;5.00;99.90;;;;;;5084408;28;20068;-57
2022/04/09 03:04:00;;;;;;;20.58;3.95;;;5.00;99.90;;;;;;5087889;28;20111;-58
2022/04/09 03:06:26;;;;;;;18.75;4.32;;;5.00;99.90;;;;;;5082281;28;20043;-59
2022/04/09 03:08:51;;;;;;;23.90;4.35;;;5.00;99.90;;;;;;5080789;28;20025;-58
2022/04/09 03:11:17;;;;;;;27.60;4.75;;;5.00;99.90;;;;;;5067193;28;20020;-57
2022/04/09 03:13:42;;;;;;;21.83;5.78;;;5.00;99.90;;;;;;5059671;28;20098;-57
2022/04/09 03:16:08;;;;;;;15.82;4.40;;;5.00;99.90;;;;;;5073979;28;20043;-58
2022/04/09 03:18:34;;;;;;;13.85;5.13;;;5.00;99.90;;;;;;5069984;28;20403;-58
2022/04/09 03:20:59;;;;;;;25.25;4.63;;;5.10;99.90;;;;;;5070191;28;20495;-58
2022/04/09 03:23:25;;;;;;;20.20;4.78;;;5.10;99.90;;;;;;5074345;28;20059;-59
2022/04/09 03:25:50;;;;;;;20.58;4.03;;;5.10;99.90;;;;;;5073156;28;20037;-59
2022/04/09 03:28:16;;;;;;;18.45;4.43;;;5.20;99.90;;;;;;5069957;28;20032;-59
2022/04/09 03:30:44;;;;;;;18.48;4.22;;;5.20;99.90;;;;;;5069784;28;20024;-57
2022/04/09 03:33:09;;;;;;;20.63;4.95;;;5.20;99.90;;;;;;5073380;28;20024;-58
2022/04/09 03:35:35;;;;;;;17.98;6.78;;;5.20;99.90;;;;;;5070689;28;20071;-59
2022/04/09 03:38:02;;;;;;;27.90;4.72;;;5.20;99.90;;;;;;5070827;28;20403;-59
2022/04/09 03:40:27;;;;;;;26.83;4.85;;;5.20;99.90;;;;;;5071188;28;20028;-59
2022/04/09 03:42:53;;;;;;;21.65;5.20;;;5.20;99.90;;;;;;5071546;28;20032;-59
2022/04/09 03:45:18;;;;;;;26.38;5.88;;;5.30;99.90;;;;;;5070095;28;20107;-59
2022/04/09 03:47:44;;;;;;;29.40;6.07;;;5.30;99.90;;;;;;5073451;28;20100;-58
2022/04/09 03:50:10;;;;;;;26.85;6.30;;;5.30;99.90;;;;;;5072085;28;20391;-59
2022/04/09 03:52:35;;;;;;;35.08;6.32;;;5.30;99.90;;;;;;5070997;28;20028;-57
2022/04/09 03:55:01;;;;;;;29.00;5.22;;;5.30;99.90;;;;;;5074469;28;20042;-56
2022/04/09 03:57:26;;;;;;;35.10;5.45;;;5.30;99.90;;;;;;5070437;28;20100;-56
2022/04/09 03:59:55;;;;;;;28.02;5.25;;;5.30;99.90;;;;;;5072282;28;20484;-58
2022/04/09 04:02:22;;;;;;;32.58;6.40;;;5.30;99.90;;;;;;5073794;28;20021;-59
2022/04/09 04:04:48;;;;;;;16.77;4.90;;;5.30;99.90;;;;;;5072404;28;20021;-58
2022/04/09 04:07:13;;;;;;;24.42;4.82;;;5.30;99.90;;;;;;5071107;28;20020;-57
2022/04/09 04:09:39;;;;;;;20.58;5.30;;;5.30;99.90;;;;;;5070858;28;20391;-58
2022/04/09 04:12:05;;;;;;;22.27;4.70;;;5.40;99.90;;;;;;5071027;28;20081;-57
2022/04/09 04:14:31;;;;;;;30.75;4.55;;;5.40;99.90;;;;;;5063594;28;20024;-59
2022/04/09 04:16:56;;;;;;;36.80;5.25;;;5.40;99.90;;;;;;5073506;28;20036;-58
2022/04/09 04:19:22;;;;;;;39.05;4.80;;;5.40;99.90;;;;;;5074316;28;20041;-56
2022/04/09 04:21:48;;;;;;;16.73;4.15;;;5.40;99.90;;;;;;5072773;28;20031;-58
2022/04/09 04:24:13;;;;;;;26.70;4.75;;;5.40;99.90;;;;;;5071450;28;20484;-58
2022/04/09 04:26:39;;;;;;;26.50;5.05;;;5.50;99.90;;;;;;5072787;28;20074;-59
2022/04/09 04:29:04;;;;;;;26.20;5.80;;;5.50;99.90;;;;;;5070649;28;20025;-59
2022/04/09 04:31:30;;;;;;;20.25;4.60;;;5.50;99.90;;;;;;5079583;28;20483;-59
2022/04/09 04:33:55;;;;;;;23.35;4.95;;;5.40;99.90;;;;;;5071165;28;20020;-60
2022/04/09 04:36:21;;;;;;;22.95;4.55;;;5.50;99.90;;;;;;5078816;28;20028;-56
2022/04/09 04:38:47;;;;;;;22.13;4.38;;;5.40;99.90;;;;;;5073460;28;20488;-60
2022/04/09 04:41:13;;;;;;;19.02;4.25;;;5.40;99.90;;;;;;5072498;28;20104;-57
2022/04/09 04:43:38;;;;;;;37.55;6.07;;;5.40;99.90;;;;;;5070339;28;20132;-59
2022/04/09 04:46:04;;;;;;;29.55;5.25;;;5.40;99.90;;;;;;5070339;28;20109;-57
2022/04/09 04:48:29;;;;;;;29.75;5.35;;;5.40;99.90;;;;;;5076177;28;20037;-59
2022/04/09 04:50:55;;;;;;;24.48;4.63;;;5.40;99.90;;;;;;5078416;28;20139;-56
2022/04/09 04:53:21;;;;;;;22.80;6.22;;;5.40;99.90;;;;;;5069187;28;20045;-57
2022/04/09 04:55:46;;;;;;;33.50;5.65;;;5.40;99.90;;;;;;5072919;28;20032;-57
2022/04/09 04:58:12;;;;;;;24.88;5.22;;;5.30;99.90;;;;;;5076328;28;20078;-60
2022/04/09 05:00:38;;;;;;;35.28;5.15;;;5.30;99.90;;;;;;5079421;28;20025;-60
2022/04/09 05:03:03;;;;;;;18.38;4.93;;;5.30;99.90;;;;;;5066849;28;20478;-59
2022/04/09 05:05:29;;;;;;;32.03;6.65;;;5.30;99.90;;;;;;5081258;28;20032;-59
2022/04/09 05:07:55;;;;;;;26.38;4.28;;;5.30;99.90;;;;;;5078904;28;20016;-59
2022/04/09 05:10:22;;;;;;;26.38;4.45;;;5.30;99.90;;;;;;5083436;28;20399;-57
2022/04/09 05:12:49;;;;;;;33.70;7.05;;;5.30;99.90;;;;;;5070782;28;20020;-60
2022/04/09 05:15:16;;;;;;;27.60;5.57;;;5.30;99.90;;;;;;5078990;28;20025;-59
2022/04/09 05:17:43;;;;;;;26.65;4.03;;;5.20;99.90;;;;;;5075016;28;20107;-57
2022/04/09 05:20:11;;;;;;;20.70;3.95;;;5.20;99.90;;;;;;5084158;28;20024;-56
2022/04/09 05:22:38;;;;;;;27.13;4.68;;;5.20;99.90;;;;;;5075884;28;20480;-59
2022/04/09 05:25:05;;;;;;;24.25;4.65;;;5.20;99.90;;;;;;5081781;28;20028;-59
2022/04/09 05:27:31;;;;;;;31.73;5.07;;;5.20;99.90;;;;;;5071812;28;20057;-59
2022/04/09 05:29:57;;;;;;;46.10;7.13;;;5.20;99.90;;;;;;5081992;28;20029;-59
2022/04/09 05:32:22;;;;;;;33.35;4.47;;;5.20;99.90;;;;;;5076813;28;20032;-59
2022/04/09 05:34:49;;;;;;;32.92;5.30;;;5.20;99.90;;;;;;5079631;28;20020;-55
2022/04/09 05:37:15;;;;;;;27.20;5.97;;;5.20;99.90;;;;;;5076720;28;20027;-59
2022/04/09 05:39:42;;;;;;;30.27;5.00;;;5.20;99.90;;;;;;5079380;28;20032;-56
2022/04/09 05:42:12;;;;;;;25.77;5.07;;;5.20;99.90;;;;;;5075003;28;20024;-58
2022/04/09 05:44:37;;;;;;;26.30;5.20;;;5.20;99.90;;;;;;5072982;28;20016;-58
2022/04/09 05:47:03;;;;;;;18.40;4.45;;;5.20;99.90;;;;;;5062525;28;20020;-59
2022/04/09 05:49:28;;;;;;;33.55;5.47;;;5.20;99.90;;;;;;5080624;28;20032;-58
2022/04/09 05:51:54;;;;;;;31.40;5.22;;;5.20;99.90;;;;;;5074927;28;20017;-57
2022/04/09 05:54:19;;;;;;;33.50;5.85;;;5.10;99.90;;;;;;5073215;28;20033;-59
2022/04/09 05:56:45;;;;;;;32.85;7.20;;;5.10;99.90;;;;;;5073394;28;20044;-59
2022/04/09 05:59:11;;;;;;;33.65;7.07;;;5.20;99.90;;;;;;5083435;28;20568;-57
2022/04/09 06:01:37;;;;;;;34.63;5.72;;;5.20;99.90;;;;;;5078080;28;20531;-57
2022/04/09 06:04:02;;;;;;;36.33;6.22;;;5.20;99.90;;;;;;5076322;28;20052;-59
2022/04/09 06:06:28;;;;;;;33.75;5.38;;;5.20;99.90;;;;;;5078044;28;20024;-60
2022/04/09 06:08:54;;;;;;;31.50;6.28;;;5.20;99.90;;;;;;5074317;28;20016;-58
2022/04/09 06:11:21;;;;;;;40.25;6.90;;;5.20;99.90;;;;;;5080330;28;20533;-57
2022/04/09 06:13:46;;;;;;;28.65;5.88;;;5.20;99.90;;;;;;5074672;28;20029;-59
2022/04/09 06:16:12;;;;;;;27.05;6.45;;;5.20;99.90;;;;;;5072328;28;20025;-55
2022/04/09 06:18:38;;;;;;;39.17;5.70;;;5.30;99.90;;;;;;5076321;28;20032;-54
2022/04/09 06:21:04;;;;;;;34.25;5.90;;;5.40;99.90;;;;;;5076361;28;20100;-57
2022/04/09 06:23:30;;;;;;;28.15;5.63;;;5.50;99.90;;;;;;5071938;28;20560;-57
2022/04/09 06:25:56;;;;;;;27.88;7.03;;;5.50;99.90;;;;;;5074192;28;20032;-59
2022/04/09 06:28:22;;;;;;;35.95;6.88;;;5.60;99.90;;;;;;5069925;28;20025;-58
2022/04/09 06:30:47;;;;;;;25.65;6.30;;;5.70;99.90;;;;;;5079194;28;20154;-58
2022/04/09 06:33:13;;;;;;;25.85;5.43;;;5.70;99.90;;;;;;5072636;28;20031;-58
2022/04/09 06:35:38;;;;;;;30.13;5.82;;;5.80;99.90;;;;;;5078414;28;20028;-59
2022/04/09 06:38:04;;;;;;;23.55;4.07;;;5.80;99.90;;;;;;5071005;28;20427;-59
2022/04/09 06:40:30;;;;;;;25.70;4.60;;;5.80;99.90;;;;;;5077489;28;20064;-55
2022/04/09 06:42:56;;;;;;;22.60;4.80;;;5.90;99.90;;;;;;5071382;28;20028;-60
2022/04/09 06:45:22;;;;;;;31.20;4.70;;;5.90;99.90;;;;;;5071195;28;20408;-58
2022/04/09 06:47:47;;;;;;;31.02;5.28;;;6.00;99.90;;;;;;5071669;28;20039;-58
2022/04/09 06:50:13;;;;;;;19.27;5.20;;;6.10;99.90;;;;;;5072739;28;20035;-57
2022/04/09 06:52:40;;;;;;;23.95;6.60;;;6.10;99.90;;;;;;5073976;28;20033;-58
2022/04/09 06:55:09;;;;;;;23.02;4.57;;;6.20;99.90;;;;;;5073415;28;20070;-57
2022/04/09 06:57:35;;;;;;;17.67;4.32;;;6.20;99.90;;;;;;5070589;28;20152;-58
2022/04/09 07:00:04;;;;;;;27.48;5.68;;;6.20;99.90;;;;;;5066983;28;20031;-57
2022/04/09 07:02:30;;;;;;;25.17;4.47;;;6.30;99.90;;;;;;5071209;28;20035;-58
2022/04/09 07:04:55;;;;;;;22.52;4.88;;;6.30;99.90;;;;;;5076371;28;20024;-56
2022/04/09 07:07:25;;;;;;;25.05;5.25;;;6.40;99.90;;;;;;5074311;28;20025;-58
2022/04/09 07:09:54;;;;;;;24.00;4.75;;;6.40;99.90;;;;;;5069971;28;20491;-58
2022/04/09 07:12:22;;;;;;;27.05;5.20;;;6.40;99.90;;;;;;5072016;28;20525;-59
2022/04/09 07:14:48;;;;;;;19.63;3.92;;;6.50;99.90;;;;;;5076891;28;20061;-60
2022/04/09 07:17:20;;;;;;;23.52;3.75;;;6.60;99.90;;;;;;5070268;28;20424;-59
2022/04/09 07:19:45;;;;;;;28.45;4.82;;;6.70;99.90;;;;;;5073935;28;20392;-56
2022/04/09 07:22:11;;;;;;;19.88;3.90;;;6.70;99.90;;;;;;5068285;28;20028;-56
2022/04/09 07:24:36;;;;;;;27.90;3.50;;;6.80;99.90;;;;;;5071863;28;20055;-58
2022/04/09 07:27:02;;;;;;;16.33;3.50;;;7.00;99.90;;;;;;5077711;28;20483;-59
2022/04/09 07:29:28;;;;;;;19.52;4.88;;;7.00;99.90;;;;;;5071010;28;20035;-58
2022/04/09 07:31:53;;;;;;;17.25;3.63;;;7.10;99.90;;;;;;5071100;28;20032;-59
2022/04/09 07:34:19;;;;;;;18.27;4.78;;;7.20;99.90;;;;;;5070995;28;20025;-57
2022/04/09 07:36:44;;;;;;;23.02;4.07;;;7.10;99.90;;;;;;5070886;28;20504;-56
2022/04/09 07:39:10;;;;;;;21.90;3.70;;;7.10;99.90;;;;;;5071108;28;20093;-58
2022/04/09 07:41:35;;;;;;;19.63;4.00;;;7.20;99.90;;;;;;5071198;28;20094;-57
2022/04/09 07:44:01;;;;;;;19.38;3.63;;;7.20;99.90;;;;;;5064529;28;20031;-56
2022/04/09 07:46:26;;;;;;;30.98;5.95;;;7.20;99.90;;;;;;5068812;28;20064;-59
2022/04/09 07:48:52;;;;;;;22.40;4.15;;;7.20;99.90;;;;;;5068483;28;20021;-60
2022/04/09 07:51:18;;;;;;;24.13;4.45;;;7.10;99.90;;;;;;5070866;28;20025;-56
2022/04/09 07:53:44;;;;;;;26.60;4.70;;;7.10;99.90;;;;;;5069819;28;20025;-58
2022/04/09 07:56:10;;;;;;;29.88;4.60;;;7.10;99.90;;;;;;5071311;28;20028;-58
2022/04/09 07:58:36;;;;;;;25.05;3.78;;;7.30;99.90;;;;;;5071536;28;20056;-58
2022/04/09 08:01:02;;;;;;;28.02;3.80;;;7.40;99.90;;;;;;5070083;28;20108;-56
2022/04/09 08:03:27;;;;;;;25.33;4.00;;;7.40;99.90;;;;;;5067161;28;20032;-57
2022/04/09 08:05:53;;;;;;;19.27;3.88;;;7.60;99.90;;;;;;5070157;28;20024;-56
2022/04/09 08:08:19;;;;;;;29.85;6.03;;;7.60;99.90;;;;;;5070290;28;20030;-55
2022/04/09 08:10:44;;;;;;;18.95;4.00;;;7.60;99.90;;;;;;5067475;28;20020;-56
2022/04/09 08:13:10;;;;;;;20.30;3.88;;;7.80;99.90;;;;;;5067319;28;20021;-56
2022/04/09 08:15:37;;;;;;;26.65;4.32;;;7.90;99.90;;;;;;5067846;28;20033;-56
2022/04/09 08:18:04;;;;;;;20.27;3.83;;;7.90;99.90;;;;;;5066014;28;21648;-57
2022/04/09 08:20:30;;;;;;;23.05;3.47;;;7.90;99.90;;;;;;5069237;28;20067;-57
2022/04/09 08:22:55;;;;;;;18.25;3.78;;;7.90;99.90;;;;;;5067335;28;20440;-55
2022/04/09 08:25:21;;;;;;;33.90;6.82;;;7.90;99.90;;;;;;5067746;28;20399;-57
2022/04/09 08:27:52;;;;;;;29.70;3.92;;;7.90;99.90;;;;;;5070277;28;20476;-57
2022/04/09 08:30:17;;;;;;;17.60;3.28;;;8.00;99.90;;;;;;5067412;28;20025;-58
2022/04/09 08:32:43;;;;;;;16.40;3.53;;;8.00;99.90;;;;;;5066325;28;20032;-55
2022/04/09 08:35:09;;;;;;;18.77;3.17;;;8.10;99.90;;;;;;5069462;28;20283;-58
2022/04/09 08:37:35;;;;;;;18.38;4.38;;;8.20;99.90;;;;;;5067873;28;20034;-54
2022/04/09 08:40:02;;;;;;;23.88;3.95;;;8.20;99.90;;;;;;5074314;28;20047;-56
2022/04/09 08:42:30;;;;;;;25.20;3.85;;;8.30;99.90;;;;;;5072230;28;20028;-58
2022/04/09 08:44:55;;;;;;;15.38;3.72;;;8.30;99.90;;;;;;5071712;28;20074;-60
2022/04/09 08:47:23;;;;;;;17.30;3.08;;;8.40;99.90;;;;;;5070557;28;20478;-54
2022/04/09 08:49:48;;;;;;;22.25;4.07;;;8.30;99.90;;;;;;5069284;28;20047;-57
2022/04/09 08:52:15;;;;;;;15.15;3.25;;;8.20;99.90;;;;;;5074831;28;20476;-57
2022/04/09 08:54:41;;;;;;;16.63;2.50;;;8.20;99.90;;;;;;5070590;28;20104;-58
2022/04/09 08:57:07;;;;;;;15.43;3.22;;;8.40;99.90;;;;;;5075217;28;20103;-56
2022/04/09 08:59:33;;;;;;;22.85;4.50;;;8.60;99.90;;;;;;5073029;28;20118;-57
2022/04/09 09:01:59;;;;;;;13.13;2.85;;;8.80;99.90;;;;;;5099996;22;20091;-54
2022/04/09 09:04:25;;;;;;;15.02;2.67;;;8.80;99.90;;;;;;5088866;28;20103;-55
2022/04/09 09:06:52;;;;;;;11.52;2.75;;;8.80;99.90;;;;;;5091034;28;20107;-57
2022/04/09 09:09:30;;;;;;;20.38;3.42;;;8.70;99.90;;;;;;5081505;28;20027;-55
2022/04/09 09:11:57;;;;;;;21.17;3.25;;;8.80;99.90;;;;;;5103539;28;20474;-56
2022/04/09 09:14:30;;;;;;;18.60;3.20;;;8.90;99.90;;;;;;5089583;28;20050;-55
2022/04/09 09:16:58;;;;;;;17.90;2.92;;;8.90;99.90;;;;;;5080974;28;20060;-60
2022/04/09 09:19:50;;;;;;;19.67;3.15;;;9.10;99.90;;;;;;5091743;28;20020;-56
2022/04/09 09:22:16;;;;;;;21.98;3.90;;;9.10;99.90;;;;;;5093365;28;20031;-60
2022/04/09 09:24:42;;;;;;;23.58;4.78;;;9.10;99.90;;;;;;5092204;28;20122;-57
2022/04/09 09:27:08;;;;;;;18.05;2.65;;;9.20;99.90;;;;;;5095222;28;20574;-54
2022/04/09 09:29:36;;;;;;;10.18;2.78;;;9.00;99.90;;;;;;5089925;28;20483;-57
2022/04/09 09:32:04;;;;;;;9.70;2.95;;;9.00;99.90;;;;;;5089433;28;20023;-55
2022/04/09 09:34:31;;;;;;;21.75;2.90;;;9.00;99.90;;;;;;5093995;28;20406;-54
2022/04/09 09:36:57;;;;;;;15.80;2.90;;;9.20;99.90;;;;;;5090618;28;20055;-54
2022/04/09 09:39:24;;;;;;;13.07;3.22;;;9.30;99.90;;;;;;5092216;28;20023;-55
2022/04/09 09:42:05;;;;;;;15.90;2.33;;;9.00;99.90;;;;;;5092109;28;20020;-58
2022/04/09 09:44:34;;;;;;;18.30;3.55;;;9.00;99.90;;;;;;5089110;28;20034;-53
2022/04/09 09:47:08;;;;;;;12.20;2.58;;;9.00;99.90;;;;;;5081833;28;20044;-58
2022/04/09 09:49:53;;;;;;;15.00;2.72;;;9.20;99.90;;;;;;5034676;28;20025;-58
2022/04/09 09:52:26;;;;;;;12.75;2.95;;;9.30;99.90;;;;;;5064726;28;20033;-60
2022/04/09 09:55:13;;;;;;;14.00;2.78;;;9.50;99.90;;;;;;5089982;28;20020;-54
2022/04/09 09:57:39;;;;;;;11.55;2.45;;;9.90;99.90;;;;;;5082135;28;20020;-56
2022/04/09 10:00:07;;;;;;;12.82;2.70;;;10.00;99.90;;;;;;5088927;28;20914;-57
2022/04/09 10:02:33;;;;;;;13.65;2.70;;;10.10;99.90;;;;;;5071286;28;20031;-58
2022/04/09 10:04:59;;;;;;;11.23;2.45;;;10.20;99.90;;;;;;5089114;28;20032;-61
2022/04/09 10:07:27;;;;;;;10.10;2.55;;;10.10;99.90;;;;;;5077750;28;20032;-57
2022/04/09 10:09:53;;;;;;;11.90;2.28;;;9.80;99.90;;;;;;5085514;28;20036;-62
2022/04/09 10:12:25;;;;;;;10.35;1.92;;;9.80;99.90;;;;;;5089171;28;20384;-60
2022/04/09 10:14:56;;;;;;;6.82;2.13;;;9.90;99.90;;;;;;5088984;28;20067;-56
2022/04/09 10:17:23;;;;;;;13.45;2.25;;;10.00;99.90;;;;;;5090834;28;20039;-56
2022/04/09 10:19:53;;;;;;;12.38;2.78;;;10.30;99.90;;;;;;5065122;28;20380;-57
2022/04/09 10:22:21;;;;;;;13.82;2.85;;;10.50;99.90;;;;;;5086445;28;20047;-58
2022/04/09 10:24:47;;;;;;;9.93;2.13;;;10.70;99.90;;;;;;5090009;28;20084;-54
2022/04/09 10:27:37;;;;;;;10.07;2.30;;;10.90;99.90;;;;;;5069482;28;20028;-57
2022/04/09 10:30:04;;;;;;;10.05;2.22;;;10.90;99.90;;;;;;5088038;28;20020;-57
2022/04/09 10:32:40;;;;;;;8.50;2.65;;;11.00;99.90;;;;;;5071441;28;20119;-53
2022/04/09 10:35:24;;;;;;;12.52;2.05;;;10.80;99.90;;;;;;5070570;28;20451;-57
2022/04/09 10:38:12;;;;;;;9.07;2.58;;;10.60;99.90;;;;;;5084955;28;20016;-53
2022/04/09 10:40:49;;;;;;;13.65;2.30;;;10.20;99.90;;;;;;5087677;28;20110;-54
2022/04/09 10:43:21;;;;;;;12.15;2.35;;;10.50;99.90;;;;;;5089756;28;20024;-54
2022/04/09 10:46:02;;;;;;;9.55;2.10;;;10.90;99.90;;;;;;5090221;28;20027;-53
2022/04/09 10:48:42;;;;;;;8.27;1.90;;;11.00;99.90;;;;;;5081400;28;20024;-55
2022/04/09 10:51:08;;;;;;;7.85;2.38;;;11.00;99.90;;;;;;5086933;28;20016;-58
2022/04/09 10:53:36;;;;;;;9.85;1.88;;;11.20;99.90;;;;;;5086964;28;20020;-55
2022/04/09 10:56:32;;;;;;;11.15;1.92;;;11.30;99.90;;;;;;5091437;28;20039;-57
2022/04/09 10:59:04;;;;;;;10.30;2.30;;;11.50;99.90;;;;;;5087276;28;20028;-56
2022/04/09 11:01:51;;;;;;;10.63;2.10;;;11.50;99.90;;;;;;5081454;28;20107;-53
2022/04/09 11:04:25;;;;;;;13.68;2.42;;;11.60;99.90;;;;;;5084578;28;20032;-55
2022/04/09 11:07:04;;;;;;;9.07;2.03;;;12.00;99.90;;;;;;5090046;28;20106;-59
2022/04/09 11:09:58;;;;;;;10.95;2.55;;;12.00;99.90;;;;;;5084924;28;20363;-53
2022/04/09 11:12:38;;;;;;;11.05;2.40;;;11.50;99.90;;;;;;5084956;28;20016;-57
2022/04/09 11:15:09;;;;;;;11.95;2.63;;;11.80;99.90;;;;;;5087292;28;20024;-58
2022/04/09 11:17:45;;;;;;;7.72;2.13;;;11.60;99.90;;;;;;5069280;28;20544;-54
2022/04/09 11:20:13;;;;;;;9.93;2.70;;;11.60;99.90;;;;;;5086878;28;20147;-53
2022/04/09 11:22:47;;;;;;;5.90;1.73;;;11.30;99.90;;;;;;5085539;28;20016;-53
2022/04/09 11:25:26;;;;;;;21.20;2.72;;;11.20;99.90;;;;;;5068088;28;20589;-60
2022/04/09 11:28:06;;;;;;;8.10;1.95;;;10.20;99.90;;;;;;5087402;28;20056;-59
2022/04/09 11:30:32;;;;;;;8.70;1.48;;;10.50;99.90;;;;;;5079603;28;20065;-56
2022/04/09 11:32:58;;;;;;;7.93;1.70;;;10.80;99.90;;;;;;5085135;28;20024;-59
2022/04/09 11:35:26;;;;;;;5.00;1.35;;;10.70;99.90;;;;;;5084977;28;20476;-57
2022/04/09 11:37:52;;;;;;;9.10;2.17;;;10.20;99.90;;;;;;5087262;28;20058;-60
2022/04/09 11:40:20;;;;;;;9.13;2.17;;;10.60;99.90;;;;;;5086774;28;20020;-61
2022/04/09 11:42:49;;;;;;;9.27;2.15;;;11.50;99.90;;;;;;5084863;28;20032;-57
2022/04/09 11:45:27;;;;;;;10.32;2.15;;;11.80;99.90;;;;;;5083379;28;20503;-56
2022/04/09 11:47:57;;;;;;;4.32;1.77;;;11.90;99.90;;;;;;5086001;28;20507;-59
2022/04/09 11:50:25;;;;;;;6.50;1.95;;;12.30;99.90;;;;;;5086677;28;20036;-55
2022/04/09 11:52:51;;;;;;;6.82;1.45;;;11.90;99.90;;;;;;5085881;28;20035;-58
2022/04/09 11:55:17;;;;;;;2.03;0.90;;;11.40;99.90;;;;;;5081685;28;20656;-54
2022/04/09 11:57:53;;;;;;;6.50;1.52;;;11.00;99.90;;;;;;5089452;28;20032;-57
2022/04/09 12:00:23;;;;;;;8.95;1.50;;;10.60;99.90;;;;;;5085831;28;20016;-56
2022/04/09 12:02:49;;;;;;;3.65;1.58;;;9.80;99.90;;;;;;5087957;28;20030;-58
2022/04/09 12:05:15;;;;;;;2.55;1.48;;;9.20;99.90;;;;;;5087002;28;20447;-56
2022/04/09 12:07:44;;;;;;;5.55;2.05;;;9.10;99.90;;;;;;5086503;28;20024;-59
2022/04/09 12:10:27;;;;;;;5.40;2.30;;;8.70;99.90;;;;;;5086179;28;20027;-55
2022/04/09 12:13:01;;;;;;;5.20;2.20;;;8.30;99.90;;;;;;5085047;28;20115;-54
2022/04/09 12:15:31;;;;;;;10.85;3.25;;;8.30;99.90;;;;;;5085748;28;20032;-59
2022/04/09 12:17:57;;;;;;;7.60;2.80;;;8.30;99.90;;;;;;5086891;28;20512;-53
2022/04/09 12:20:37;;;;;;;7.32;2.90;;;8.70;99.90;;;;;;5086321;28;20036;-57
2022/04/09 12:23:04;;;;;;;9.38;3.13;;;9.20;99.90;;;;;;5085924;28;20032;-55
2022/04/09 12:25:44;;;;;;;7.38;2.97;;;10.20;99.90;;;;;;5086310;28;20038;-52
2022/04/09 12:28:24;;;;;;;17.50;3.60;;;10.50;99.90;;;;;;5087165;28;20054;-56
2022/04/09 12:30:53;;;;;;;10.95;2.60;;;11.10;99.90;;;;;;5087558;28;20061;-57
2022/04/09 12:33:20;;;;;;;17.50;3.05;;;11.10;99.90;;;;;;5088221;28;20052;-54
2022/04/09 12:35:46;;;;;;;9.73;2.10;;;10.50;99.90;;;;;;5087428;28;20089;-64
2022/04/09 12:38:30;;;;;;;3.33;1.30;;;10.20;99.90;;;;;;5088923;28;20476;-63
2022/04/09 12:41:04;;;;;;;5.65;1.40;;;10.80;99.90;;;;;;5081090;28;20024;-62
2022/04/09 12:43:41;;;;;;;;;;;11.30;99.90;;;;;;5069935;28;20395;-63
2022/04/09 12:46:11;;;;;;;4.85;1.95;;;11.80;99.90;;;;;;5088399;28;19919;-64
2022/04/09 12:48:41;;;;;;;5.18;1.88;;;12.10;99.90;;;;;;5086850;28;20027;-64